Mai2113 — YQNP — position and weather

sailwx.info

Track history (hours):
 
Tides and Currents Weather Stations Pressure Air Temp Water Temp Dewpoint Dewpoint Depression Visibility Wind Speed Wind Dir Waves Ship Positions

Mai2113

Last reported at 2017-Oct-23 02:30 UTC. Time now 2017-Oct-23 02:46 UTC.
Position N 44°06' E 028°41'.

Length 26 m.

Type: Law enforcement. MMSI: 264900265.

Date/timePositionNaut miles runAvg speedWind from/ knotsBaromVisibWave heightAir tempDewpointWater temp
2017-Oct-23 02:30N 44°06' E 028°41'0 0.0
2017-Oct-23 02:00N 44°06' E 028°41'0 0.0
2017-Oct-23 01:31N 44°06' E 028°41'0 0.0
2017-Oct-23 01:00N 44°06' E 028°41'0 0.0
2017-Oct-23 00:31N 44°06' E 028°41'0 0.0
2017-Oct-23 00:00N 44°06' E 028°41'0 0.0
2017-Oct-22 23:30N 44°06' E 028°41'0 0.0
2017-Oct-22 23:00N 44°06' E 028°41'0 0.0
2017-Oct-22 22:30N 44°06' E 028°41'0 0.0
2017-Oct-22 22:00N 44°06' E 028°41'0 0.0
2017-Oct-22 21:31N 44°06' E 028°41'0 0.0
2017-Oct-22 21:01N 44°06' E 028°41'0 0.0
2017-Oct-22 20:31N 44°06' E 028°41'0 0.0
2017-Oct-22 20:00N 44°06' E 028°41'0 0.0
2017-Oct-22 19:31N 44°06' E 028°41'0 0.0
2017-Oct-22 19:00N 44°06' E 028°41'0 0.0
2017-Oct-22 18:31N 44°06' E 028°41'0 0.1
2017-Oct-22 18:01N 44°06' E 028°41'3 5.5
2017-Oct-22 17:30N 44°03' E 028°42'5 9.7
2017-Oct-22 17:01N 43°58' E 028°41'5 9.7
2017-Oct-22 16:30N 43°53' E 028°39'5 9.7
2017-Oct-22 16:00N 43°49' E 028°37'1 2.9
2017-Oct-22 15:30N 43°48' E 028°35'0 0.0
2017-Oct-22 15:00N 43°48' E 028°35'0 0.0
2017-Oct-22 14:30N 43°48' E 028°35'0 0.0
2017-Oct-22 14:00N 43°48' E 028°35'0 0.0
2017-Oct-22 13:30N 43°48' E 028°35'0 0.0
2017-Oct-22 13:00N 43°48' E 028°35'0 0.0
2017-Oct-22 12:31N 43°48' E 028°35'0 0.0
2017-Oct-22 12:00N 43°48' E 028°35'0 0.0
2017-Oct-22 11:31N 43°48' E 028°35'0 0.0
2017-Oct-22 11:01N 43°48' E 028°35'0 0.0
2017-Oct-22 10:30N 43°48' E 028°35'0 0.0
2017-Oct-22 10:01N 43°48' E 028°35'0 0.0
2017-Oct-22 07:36N 43°48' E 028°35'0 0.3
2017-Oct-22 07:30N 43°48' E 028°35'5 9.5
2017-Oct-22 07:00N 43°49' E 028°42'612.0
2017-Oct-22 06:30N 43°45' E 028°48'22 4.7
2017-Oct-22 01:54N 43°33' E 029°13'0 0.6
2017-Oct-22 01:30N 43°33' E 029°13'0 0.5
2017-Oct-22 01:00N 43°33' E 029°13'17 1.0
2017-Oct-21 06:41N 43°46' E 028°57'314.5
2017-Oct-21 06:30N 43°49' E 028°56'4 8.6
2017-Oct-21 06:00N 43°52' E 028°53'5 9.7
2017-Oct-21 05:30N 43°57' E 028°49'5 9.7
2017-Oct-21 05:00N 44°01' E 028°46'5 9.8
2017-Oct-21 04:31N 44°05' E 028°43'5 9.7
2017-Oct-21 04:00N 44°09' E 028°40'  
2017-Oct-15 05:31N 44°09' E 028°40'0 0.0
2017-Oct-15 05:30N 44°09' E 028°40'2 3.6
2017-Oct-15 05:00N 44°08' E 028°41'510.3
2017-Oct-15 04:30N 44°03' E 028°44'510.1
2017-Oct-15 04:00N 43°58' E 028°45'510.1
2017-Oct-15 03:30N 43°53' E 028°44'5 9.8
2017-Oct-15 03:00N 43°58' E 028°44'3 7.0
2017-Oct-15 02:30N 44°01' E 028°44'510.2
2017-Oct-15 02:00N 43°56' E 028°43'510.1
2017-Oct-15 01:30N 43°51' E 028°43'510.6
2017-Oct-15 01:00N 43°47' E 028°40'3 6.9
2017-Oct-15 00:30N 43°50' E 028°42'510.5
2017-Oct-15 00:00N 43°55' E 028°43'510.6
2017-Oct-14 23:30N 44°00' E 028°44'2 3.2
2017-Oct-14 23:01N 43°59' E 028°43'510.1
2017-Oct-14 22:30N 43°54' E 028°41'510.1
2017-Oct-14 22:01N 43°49' E 028°40'3 3.8
2017-Oct-14 21:09N 43°52' E 028°42'110.7
2017-Oct-14 21:00N 43°53' E 028°43'510.2
2017-Oct-14 20:30N 43°58' E 028°43'510.3
2017-Oct-14 20:00N 44°03' E 028°43'3 5.2
2017-Oct-14 19:30N 44°06' E 028°41'0 0.0
2017-Oct-14 19:00N 44°06' E 028°41'0 0.0
2017-Oct-14 18:30N 44°06' E 028°41'0 0.0
2017-Oct-14 18:00N 44°06' E 028°41'0 0.0
2017-Oct-14 17:30N 44°06' E 028°41'0 0.0
2017-Oct-14 17:00N 44°06' E 028°41'0 0.0
2017-Oct-14 16:30N 44°06' E 028°41'0 0.0
2017-Oct-14 16:00N 44°06' E 028°41'0 0.0
2017-Oct-14 15:30N 44°05' E 028°41'0 0.0
2017-Oct-14 15:00N 44°06' E 028°41'0 0.0
2017-Oct-14 14:30N 44°06' E 028°41'0 0.0
2017-Oct-14 14:00N 44°06' E 028°41'0 0.0
2017-Oct-14 13:30N 44°05' E 028°41'0 0.0
2017-Oct-14 13:00N 44°05' E 028°41'0 0.0
2017-Oct-14 12:30N 44°05' E 028°41'0 0.0
2017-Oct-14 12:00N 44°06' E 028°41'0 0.7
2017-Oct-14 11:30N 44°06' E 028°41'510.9
2017-Oct-14 11:00N 44°03' E 028°47'2 4.4
2017-Oct-14 10:30N 44°01' E 028°49'611.8
2017-Oct-14 10:01N 44°07' E 028°48'510.1
2017-Oct-14 09:31N 44°12' E 028°49'510.3
2017-Oct-14 09:01N 44°16' E 028°45'5 9.9
2017-Oct-14 08:30N 44°20' E 028°41'0 0.4
2017-Oct-14 08:00N 44°20' E 028°41'0 0.0
2017-Oct-14 07:30N 44°20' E 028°41'0 0.0
2017-Oct-14 07:00N 44°20' E 028°41'0 0.0
2017-Oct-14 06:30N 44°20' E 028°41'0 0.0
2017-Oct-14 06:00N 44°20' E 028°41'0 0.0
2017-Oct-14 05:30N 44°20' E 028°41'0 0.0
2017-Oct-14 05:00N 44°20' E 028°41'0 0.0
2017-Oct-14 03:51N 44°20' E 028°41'0 0.0
2017-Oct-14 03:31N 44°20' E 028°41'0 0.0
2017-Oct-14 03:00N 44°20' E 028°41'0 0.0
2017-Oct-14 02:31N 44°20' E 028°41'0 0.0
2017-Oct-14 02:00N 44°20' E 028°41'0 0.0
2017-Oct-14 01:30N 44°20' E 028°41'0 0.0
2017-Oct-14 01:00N 44°20' E 028°41'0 0.0
2017-Oct-14 00:30N 44°20' E 028°41'0 0.0
2017-Oct-14 00:00N 44°20' E 028°41'0 0.0
2017-Oct-13 23:31N 44°20' E 028°41'0 0.0
2017-Oct-13 23:00N 44°20' E 028°41'0 0.0
2017-Oct-13 22:30N 44°20' E 028°41'0 0.0
2017-Oct-13 22:00N 44°20' E 028°41'0 0.0
2017-Oct-13 21:30N 44°20' E 028°41'0 0.0
2017-Oct-13 21:00N 44°20' E 028°41'3 5.2
2017-Oct-13 20:31N 44°18' E 028°43'815.2
2017-Oct-13 20:01N 44°23' E 028°52'815.2
2017-Oct-13 19:31N 44°26' E 029°02'714.5
2017-Oct-13 19:01N 44°32' E 029°07'6 5.2
2017-Oct-13 17:46N 44°38' E 029°11'0 0.5
2017-Oct-13 17:30N 44°38' E 029°11'11 8.4
2017-Oct-13 16:13N 44°31' E 028°59'210.3
2017-Oct-13 16:01N 44°29' E 028°57'1 3.0
2017-Oct-13 15:30N 44°28' E 028°58'510.7
2017-Oct-13 15:00N 44°23' E 028°56'4 8.8
2017-Oct-13 14:30N 44°21' E 028°51'510.0
2017-Oct-13 14:00N 44°17' E 028°46'4 9.0
2017-Oct-13 13:30N 44°21' E 028°48'4 7.5
2017-Oct-13 13:00N 44°23' E 028°53'3 5.9
2017-Oct-13 12:30N 44°25' E 028°56'4 7.4
2017-Oct-13 12:00N 44°24' E 029°01'510.0
2017-Oct-13 11:30N 44°20' E 029°05'4 8.6
2017-Oct-13 11:00N 44°15' E 029°05'510.3
2017-Oct-13 10:30N 44°12' E 029°00'510.5
2017-Oct-13 10:01N 44°08' E 028°54'510.6
2017-Oct-13 09:30N 44°05' E 028°48'510.5
2017-Oct-13 09:00N 44°02' E 028°43'2 3.1
2017-Oct-13 08:31N 44°01' E 028°41'1 2.7
2017-Oct-13 08:00N 44°02' E 028°40'1 2.3
2017-Oct-13 07:31N 44°03' E 028°40'0 0.8
2017-Oct-13 07:01N 44°04' E 028°40'3 7.0
2017-Oct-13 06:31N 44°07' E 028°41'  
Track history (hours):
 
Tides and Currents Weather Stations Pressure Air Temp Water Temp Dewpoint Dewpoint Depression Visibility Wind Speed Wind Dir Waves Ship Positions

Mai2113

Last reported at 2017-Oct-23 02:30 UTC. Time now 2017-Oct-23 02:46 UTC.
Position N 44°06' E 028°41'.

Length 26 m.

Type: Law enforcement. MMSI: 264900265.

Date/timePositionNaut miles runAvg speedWind from/ knotsBaromVisibWave heightAir tempDewpointWater temp
2017-Oct-23 02:30N 44°06' E 028°41'0 0.0
2017-Oct-23 02:00N 44°06' E 028°41'0 0.0
2017-Oct-23 01:31N 44°06' E 028°41'0 0.0
2017-Oct-23 01:00N 44°06' E 028°41'0 0.0
2017-Oct-23 00:31N 44°06' E 028°41'0 0.0
2017-Oct-23 00:00N 44°06' E 028°41'0 0.0
2017-Oct-22 23:30N 44°06' E 028°41'0 0.0
2017-Oct-22 23:00N 44°06' E 028°41'0 0.0
2017-Oct-22 22:30N 44°06' E 028°41'0 0.0
2017-Oct-22 22:00N 44°06' E 028°41'0 0.0
2017-Oct-22 21:31N 44°06' E 028°41'0 0.0
2017-Oct-22 21:01N 44°06' E 028°41'0 0.0
2017-Oct-22 20:31N 44°06' E 028°41'0 0.0
2017-Oct-22 20:00N 44°06' E 028°41'0 0.0
2017-Oct-22 19:31N 44°06' E 028°41'0 0.0
2017-Oct-22 19:00N 44°06' E 028°41'0 0.0
2017-Oct-22 18:31N 44°06' E 028°41'0 0.1
2017-Oct-22 18:01N 44°06' E 028°41'3 5.5
2017-Oct-22 17:30N 44°03' E 028°42'5 9.7
2017-Oct-22 17:01N 43°58' E 028°41'5 9.7
2017-Oct-22 16:30N 43°53' E 028°39'5 9.7
2017-Oct-22 16:00N 43°49' E 028°37'1 2.9
2017-Oct-22 15:30N 43°48' E 028°35'0 0.0
2017-Oct-22 15:00N 43°48' E 028°35'0 0.0
2017-Oct-22 14:30N 43°48' E 028°35'0 0.0
2017-Oct-22 14:00N 43°48' E 028°35'0 0.0
2017-Oct-22 13:30N 43°48' E 028°35'0 0.0
2017-Oct-22 13:00N 43°48' E 028°35'0 0.0
2017-Oct-22 12:31N 43°48' E 028°35'0 0.0
2017-Oct-22 12:00N 43°48' E 028°35'0 0.0
2017-Oct-22 11:31N 43°48' E 028°35'0 0.0
2017-Oct-22 11:01N 43°48' E 028°35'0 0.0
2017-Oct-22 10:30N 43°48' E 028°35'0 0.0
2017-Oct-22 10:01N 43°48' E 028°35'0 0.0
2017-Oct-22 07:36N 43°48' E 028°35'0 0.3
2017-Oct-22 07:30N 43°48' E 028°35'5 9.5
2017-Oct-22 07:00N 43°49' E 028°42'612.0
2017-Oct-22 06:30N 43°45' E 028°48'22 4.7
2017-Oct-22 01:54N 43°33' E 029°13'0 0.6
2017-Oct-22 01:30N 43°33' E 029°13'0 0.5
2017-Oct-22 01:00N 43°33' E 029°13'17 1.0
2017-Oct-21 06:41N 43°46' E 028°57'314.5
2017-Oct-21 06:30N 43°49' E 028°56'4 8.6
2017-Oct-21 06:00N 43°52' E 028°53'5 9.7
2017-Oct-21 05:30N 43°57' E 028°49'5 9.7
2017-Oct-21 05:00N 44°01' E 028°46'5 9.8
2017-Oct-21 04:31N 44°05' E 028°43'5 9.7
2017-Oct-21 04:00N 44°09' E 028°40'  
2017-Oct-15 05:31N 44°09' E 028°40'0 0.0
2017-Oct-15 05:30N 44°09' E 028°40'2 3.6
2017-Oct-15 05:00N 44°08' E 028°41'510.3
2017-Oct-15 04:30N 44°03' E 028°44'510.1
2017-Oct-15 04:00N 43°58' E 028°45'510.1
2017-Oct-15 03:30N 43°53' E 028°44'5 9.8
2017-Oct-15 03:00N 43°58' E 028°44'3 7.0
2017-Oct-15 02:30N 44°01' E 028°44'510.2
2017-Oct-15 02:00N 43°56' E 028°43'510.1
2017-Oct-15 01:30N 43°51' E 028°43'510.6
2017-Oct-15 01:00N 43°47' E 028°40'3 6.9
2017-Oct-15 00:30N 43°50' E 028°42'510.5
2017-Oct-15 00:00N 43°55' E 028°43'510.6
2017-Oct-14 23:30N 44°00' E 028°44'2 3.2
2017-Oct-14 23:01N 43°59' E 028°43'510.1
2017-Oct-14 22:30N 43°54' E 028°41'510.1
2017-Oct-14 22:01N 43°49' E 028°40'3 3.8
2017-Oct-14 21:09N 43°52' E 028°42'110.7
2017-Oct-14 21:00N 43°53' E 028°43'510.2
2017-Oct-14 20:30N 43°58' E 028°43'510.3
2017-Oct-14 20:00N 44°03' E 028°43'3 5.2
2017-Oct-14 19:30N 44°06' E 028°41'0 0.0
2017-Oct-14 19:00N 44°06' E 028°41'0 0.0
2017-Oct-14 18:30N 44°06' E 028°41'0 0.0
2017-Oct-14 18:00N 44°06' E 028°41'0 0.0
2017-Oct-14 17:30N 44°06' E 028°41'0 0.0
2017-Oct-14 17:00N 44°06' E 028°41'0 0.0
2017-Oct-14 16:30N 44°06' E 028°41'0 0.0
2017-Oct-14 16:00N 44°06' E 028°41'0 0.0
2017-Oct-14 15:30N 44°05' E 028°41'0 0.0
2017-Oct-14 15:00N 44°06' E 028°41'0 0.0
2017-Oct-14 14:30N 44°06' E 028°41'0 0.0
2017-Oct-14 14:00N 44°06' E 028°41'0 0.0
2017-Oct-14 13:30N 44°05' E 028°41'0 0.0
2017-Oct-14 13:00N 44°05' E 028°41'0 0.0
2017-Oct-14 12:30N 44°05' E 028°41'0 0.0
2017-Oct-14 12:00N 44°06' E 028°41'0 0.7
2017-Oct-14 11:30N 44°06' E 028°41'510.9
2017-Oct-14 11:00N 44°03' E 028°47'2 4.4
2017-Oct-14 10:30N 44°01' E 028°49'611.8
2017-Oct-14 10:01N 44°07' E 028°48'510.1
2017-Oct-14 09:31N 44°12' E 028°49'510.3
2017-Oct-14 09:01N 44°16' E 028°45'5 9.9
2017-Oct-14 08:30N 44°20' E 028°41'0 0.4
2017-Oct-14 08:00N 44°20' E 028°41'0 0.0
2017-Oct-14 07:30N 44°20' E 028°41'0 0.0
2017-Oct-14 07:00N 44°20' E 028°41'0 0.0
2017-Oct-14 06:30N 44°20' E 028°41'0 0.0
2017-Oct-14 06:00N 44°20' E 028°41'0 0.0
2017-Oct-14 05:30N 44°20' E 028°41'0 0.0
2017-Oct-14 05:00N 44°20' E 028°41'0 0.0
2017-Oct-14 03:51N 44°20' E 028°41'0 0.0
2017-Oct-14 03:31N 44°20' E 028°41'0 0.0
2017-Oct-14 03:00N 44°20' E 028°41'0 0.0
2017-Oct-14 02:31N 44°20' E 028°41'0 0.0
2017-Oct-14 02:00N 44°20' E 028°41'0 0.0
2017-Oct-14 01:30N 44°20' E 028°41'0 0.0
2017-Oct-14 01:00N 44°20' E 028°41'0 0.0
2017-Oct-14 00:30N 44°20' E 028°41'0 0.0
2017-Oct-14 00:00N 44°20' E 028°41'0 0.0
2017-Oct-13 23:31N 44°20' E 028°41'0 0.0
2017-Oct-13 23:00N 44°20' E 028°41'0 0.0
2017-Oct-13 22:30N 44°20' E 028°41'0 0.0
2017-Oct-13 22:00N 44°20' E 028°41'0 0.0
2017-Oct-13 21:30N 44°20' E 028°41'0 0.0
2017-Oct-13 21:00N 44°20' E 028°41'3 5.2
2017-Oct-13 20:31N 44°18' E 028°43'815.2
2017-Oct-13 20:01N 44°23' E 028°52'815.2
2017-Oct-13 19:31N 44°26' E 029°02'714.5
2017-Oct-13 19:01N 44°32' E 029°07'6 5.2
2017-Oct-13 17:46N 44°38' E 029°11'0 0.5
2017-Oct-13 17:30N 44°38' E 029°11'11 8.4
2017-Oct-13 16:13N 44°31' E 028°59'210.3
2017-Oct-13 16:01N 44°29' E 028°57'1 3.0
2017-Oct-13 15:30N 44°28' E 028°58'510.7
2017-Oct-13 15:00N 44°23' E 028°56'4 8.8
2017-Oct-13 14:30N 44°21' E 028°51'510.0
2017-Oct-13 14:00N 44°17' E 028°46'4 9.0
2017-Oct-13 13:30N 44°21' E 028°48'4 7.5
2017-Oct-13 13:00N 44°23' E 028°53'3 5.9
2017-Oct-13 12:30N 44°25' E 028°56'4 7.4
2017-Oct-13 12:00N 44°24' E 029°01'510.0
2017-Oct-13 11:30N 44°20' E 029°05'4 8.6
2017-Oct-13 11:00N 44°15' E 029°05'510.3
2017-Oct-13 10:30N 44°12' E 029°00'510.5
2017-Oct-13 10:01N 44°08' E 028°54'510.6
2017-Oct-13 09:30N 44°05' E 028°48'510.5
2017-Oct-13 09:00N 44°02' E 028°43'2 3.1
2017-Oct-13 08:31N 44°01' E 028°41'1 2.7
2017-Oct-13 08:00N 44°02' E 028°40'1 2.3
2017-Oct-13 07:31N 44°03' E 028°40'0 0.8
2017-Oct-13 07:01N 44°04' E 028°40'3 7.0
2017-Oct-13 06:31N 44°07' E 028°41'  

Dump ship's entire track history